createdAt,value
2018-06-02T00:00:49.653Z,19.95
2018-06-02T00:01:58.516Z,19.92
2018-06-02T00:03:07.388Z,19.87
2018-06-02T00:04:16.252Z,19.95
2018-06-02T00:05:25.112Z,19.98
2018-06-02T00:06:34.074Z,20.02
2018-06-02T00:07:43.220Z,19.86
2018-06-02T00:08:52.083Z,19.94
2018-06-02T00:10:01.227Z,19.96
2018-06-02T00:11:10.443Z,19.95
2018-06-02T00:12:19.423Z,19.92
2018-06-02T00:13:28.286Z,20.01
2018-06-02T00:14:37.431Z,19.95
2018-06-02T00:15:49.873Z,20.05
2018-06-02T00:16:58.736Z,20.02
2018-06-02T00:18:07.610Z,19.96
2018-06-02T00:19:16.749Z,19.92
2018-06-02T00:20:25.613Z,19.94
2018-06-02T00:21:34.477Z,19.8
2018-06-02T00:22:43.340Z,19.83
2018-06-02T00:23:52.351Z,19.84
2018-06-02T00:25:01.217Z,19.84
2018-06-02T00:26:10.082Z,19.96
2018-06-02T00:27:18.943Z,19.96
2018-06-02T00:28:28.088Z,19.94
2018-06-02T00:29:37.047Z,19.91
2018-06-02T00:30:46.013Z,19.91
2018-06-02T00:31:54.877Z,20.08
2018-06-02T00:33:03.737Z,20.08
2018-06-02T00:34:12.600Z,19.96
2018-06-02T00:35:21.565Z,19.94
2018-06-02T00:36:30.429Z,19.91
2018-06-02T00:37:39.289Z,19.91
2018-06-02T00:38:48.152Z,19.94
2018-06-02T00:39:57.021Z,19.86
2018-06-02T00:41:06.035Z,19.88
2018-06-02T00:42:14.898Z,19.86
2018-06-02T00:43:23.761Z,19.78
2018-06-02T00:44:32.899Z,19.91
2018-06-02T00:45:41.763Z,19.87
2018-06-02T00:46:51.004Z,19.91
2018-06-02T00:47:59.868Z,19.92
2018-06-02T00:49:08.733Z,20.05
2018-06-02T00:50:17.604Z,19.88
2018-06-02T00:51:26.465Z,19.94
2018-06-02T00:52:35.710Z,19.88
2018-06-02T00:53:44.573Z,19.98
2018-06-02T00:54:53.712Z,19.94
2018-06-02T00:56:02.576Z,19.91
2018-06-02T00:57:11.442Z,20.13
2018-06-02T00:58:20.931Z,20.08
2018-06-02T00:59:29.793Z,20.06
2018-06-02T01:00:38.658Z,20.1
2018-06-02T01:01:47.520Z,20.02
2018-06-02T01:02:56.661Z,20.03
2018-06-02T01:04:06.149Z,20.1
2018-06-02T01:05:15.288Z,20.06
2018-06-02T01:06:24.156Z,20.1
2018-06-02T01:07:33.016Z,20.1
2018-06-02T01:08:41.877Z,20.08
2018-06-02T01:09:50.795Z,20.08
2018-06-02T01:10:59.656Z,20.08
2018-06-02T01:12:08.524Z,20.03
2018-06-02T01:13:17.664Z,20.11
2018-06-02T01:14:26.529Z,20.1
2018-06-02T01:15:35.392Z,20.13
2018-06-02T01:16:44.255Z,20.14
2018-06-02T01:17:53.121Z,20.06
2018-06-02T01:19:02.270Z,19.98
2018-06-02T01:20:11.414Z,20.24
2018-06-02T01:21:20.807Z,20.02
2018-06-02T01:22:30.230Z,20.11
2018-06-02T01:23:39.092Z,20.06
2018-06-02T01:24:47.955Z,20.03
2018-06-02T01:25:57.100Z,20.24
2018-06-02T01:27:06.344Z,20.1
2018-06-02T01:28:15.497Z,20.05
2018-06-02T01:29:24.349Z,19.91
2018-06-02T01:30:33.210Z,20.03
2018-06-02T01:31:42.351Z,19.98
2018-06-02T01:32:51.314Z,19.96
2018-06-02T01:34:00.475Z,19.92
2018-06-02T01:35:09.330Z,19.86
2018-06-02T01:36:18.196Z,19.96
2018-06-02T01:37:27.616Z,20.11
2018-06-02T01:38:36.630Z,20.11
2018-06-02T01:39:45.492Z,20.08
2018-06-02T01:40:54.356Z,20.01
2018-06-02T01:42:03.218Z,20.05
2018-06-02T01:43:12.360Z,20.03
2018-06-02T01:44:21.573Z,19.99
2018-06-02T01:45:30.445Z,20.02
2018-06-02T01:46:39.305Z,20.29
2018-06-02T01:47:48.736Z,20.05
2018-06-02T01:48:57.602Z,19.96
2018-06-02T01:50:06.739Z,20.2
2018-06-02T01:51:15.883Z,20.21
2018-06-02T01:52:25.023Z,20.03
2018-06-02T01:53:33.887Z,20.08
2018-06-02T01:54:42.749Z,20.02
2018-06-02T01:55:51.712Z,19.92
2018-06-02T01:57:00.588Z,19.87
2018-06-02T01:58:09.730Z,19.92
2018-06-02T01:59:18.596Z,19.95
2018-06-02T02:00:27.458Z,19.91
2018-06-02T02:01:36.319Z,19.88
2018-06-02T02:02:45.466Z,19.94
2018-06-02T02:03:54.327Z,19.94
2018-06-02T02:05:03.190Z,20.08
2018-06-02T02:06:12.056Z,20.03
2018-06-02T02:07:21.267Z,20.13
2018-06-02T02:08:30.684Z,20.02
2018-06-02T02:09:39.547Z,19.95
2018-06-02T02:10:48.416Z,20.01
2018-06-02T02:11:57.553Z,20.05
2018-06-02T02:13:06.568Z,19.95
2018-06-02T02:14:15.430Z,19.91
2018-06-02T02:15:24.292Z,20.02
2018-06-02T02:16:33.159Z,20.11
2018-06-02T02:17:42.025Z,20.18
2018-06-02T02:18:50.932Z,20.13
2018-06-02T02:19:59.793Z,20.13
2018-06-02T02:21:08.656Z,20.1
2018-06-02T02:22:17.522Z,20.02
2018-06-02T02:23:26.382Z,20.05
2018-06-02T02:24:35.245Z,20.06
2018-06-02T02:25:44.396Z,20.03
2018-06-02T02:26:53.537Z,20.18
2018-06-02T02:28:02.398Z,20.08
2018-06-02T02:29:11.536Z,20.13
2018-06-02T02:30:21.013Z,20.06
2018-06-02T02:31:30.429Z,20.11
2018-06-02T02:32:39.294Z,20.1
2018-06-02T02:33:49.007Z,20.11
2018-06-02T02:34:58.150Z,20.13
2018-06-02T02:36:07.626Z,20.11
2018-06-02T02:37:17.056Z,20.08
2018-06-02T02:38:26.195Z,20.2
2018-06-02T02:39:35.341Z,20.16
2018-06-02T02:40:44.207Z,20.23
2018-06-02T02:41:53.349Z,20.1
2018-06-02T02:43:02.774Z,20.08
2018-06-02T02:44:11.642Z,20.08
2018-06-02T02:45:20.785Z,19.92
2018-06-02T02:46:29.651Z,19.87
2018-06-02T02:47:38.943Z,19.86
2018-06-02T02:48:47.806Z,20.08
2018-06-02T02:49:56.950Z,20.08
2018-06-02T02:51:06.371Z,20.02
2018-06-02T02:52:15.235Z,20.23
2018-06-02T02:53:24.155Z,20.08
2018-06-02T02:54:33.015Z,20.1
2018-06-02T02:55:42.158Z,19.87
2018-06-02T02:56:51.324Z,20.1
2018-06-02T02:58:00.478Z,19.96
2018-06-02T02:59:09.968Z,19.98
2018-06-02T03:00:19.114Z,20.06
2018-06-02T03:01:28.540Z,20.11
2018-06-02T03:02:37.406Z,19.99
2018-06-02T03:03:46.551Z,19.92
2018-06-02T03:04:55.572Z,19.92
2018-06-02T03:06:04.710Z,19.96
2018-06-02T03:07:14.419Z,19.86
2018-06-02T03:08:23.564Z,20.05
2018-06-02T03:09:32.424Z,19.83
2018-06-02T03:10:41.288Z,19.88
2018-06-02T03:11:50.151Z,19.86
2018-06-02T03:12:59.576Z,19.8
2018-06-02T03:14:08.448Z,19.96
2018-06-02T03:15:17.869Z,20.06
2018-06-02T03:16:27.068Z,20.32
2018-06-02T03:17:36.487Z,20.1
2018-06-02T03:18:45.624Z,20.08
2018-06-02T03:19:54.527Z,20.03
2018-06-02T03:21:03.640Z,19.95
2018-06-02T03:22:12.555Z,19.92
2018-06-02T03:23:21.702Z,19.91
2018-06-02T03:24:30.565Z,19.87
2018-06-02T03:25:39.717Z,19.88
2018-06-02T03:26:48.579Z,19.98
2018-06-02T03:27:57.490Z,19.96
2018-06-02T03:29:06.631Z,19.86
2018-06-02T03:30:16.326Z,20.06
2018-06-02T03:31:25.203Z,20.01
2018-06-02T03:32:34.342Z,19.91
2018-06-02T03:33:43.632Z,20.17
2018-06-02T03:34:52.497Z,20.03
2018-06-02T03:36:01.365Z,19.83
2018-06-02T03:37:10.226Z,19.88
2018-06-02T03:38:19.091Z,19.84
2018-06-02T03:39:27.951Z,19.86
2018-06-02T03:40:37.090Z,19.81
2018-06-02T03:41:45.961Z,19.59
2018-06-02T03:42:55.380Z,19.65
2018-06-02T03:44:04.242Z,19.68
2018-06-02T03:45:13.257Z,19.69
2018-06-02T03:46:22.410Z,19.8
2018-06-02T03:47:31.833Z,19.71
2018-06-02T03:48:40.974Z,19.74
2018-06-02T03:49:49.836Z,19.74
2018-06-02T03:50:58.799Z,19.81
2018-06-02T03:52:07.947Z,19.77
2018-06-02T03:53:16.810Z,19.8
2018-06-02T03:54:25.725Z,19.88
2018-06-02T03:55:34.586Z,19.76
2018-06-02T03:56:43.599Z,19.73
2018-06-02T03:57:52.462Z,19.78
2018-06-02T03:59:01.326Z,19.69
2018-06-02T04:00:10.187Z,19.68
2018-06-02T04:01:19.049Z,19.63
2018-06-02T04:02:28.263Z,19.56
2018-06-02T04:03:37.413Z,19.51
2018-06-02T04:04:46.275Z,19.4
2018-06-02T04:05:55.136Z,19.5
2018-06-02T04:07:03.998Z,19.51
2018-06-02T04:08:12.909Z,19.69
2018-06-02T04:09:21.776Z,19.59
2018-06-02T04:10:30.913Z,19.43
2018-06-02T04:11:39.774Z,19.5
2018-06-02T04:12:48.637Z,19.43
2018-06-02T04:13:57.498Z,19.5
2018-06-02T04:15:06.362Z,19.59
2018-06-02T04:16:15.225Z,19.5
2018-06-02T04:17:24.362Z,19.84
2018-06-02T04:18:33.224Z,19.55
2018-06-02T04:19:42.339Z,19.44
2018-06-02T04:20:51.482Z,19.59
2018-06-02T04:22:00.349Z,19.59
2018-06-02T04:23:09.206Z,19.58
2018-06-02T04:24:18.067Z,19.56
2018-06-02T04:25:26.931Z,19.5
2018-06-02T04:26:35.796Z,19.41
2018-06-02T04:27:44.936Z,19.4
2018-06-02T04:28:53.797Z,19.4
2018-06-02T04:30:02.659Z,19.56
2018-06-02T04:31:11.626Z,19.59
2018-06-02T04:32:20.488Z,19.5
2018-06-02T04:33:29.350Z,19.47
2018-06-02T04:34:38.491Z,19.44
2018-06-02T04:35:47.354Z,19.43
2018-06-02T04:36:56.598Z,19.44
2018-06-02T04:38:05.462Z,19.76
2018-06-02T04:39:14.352Z,19.55
2018-06-02T04:40:23.503Z,19.41
2018-06-02T04:41:32.400Z,19.66
2018-06-02T04:42:42.009Z,19.48
2018-06-02T04:43:50.872Z,19.39
2018-06-02T04:44:59.735Z,19.48
2018-06-02T04:46:08.597Z,19.58
2018-06-02T04:47:17.458Z,19.58
2018-06-02T04:48:26.422Z,19.63
2018-06-02T04:49:35.293Z,19.55
2018-06-02T04:50:44.428Z,19.61
2018-06-02T04:51:53.293Z,19.41
2018-06-02T04:53:02.160Z,19.55
2018-06-02T04:54:11.073Z,19.4
2018-06-02T04:55:20.209Z,19.29
2018-06-02T04:56:29.072Z,19.46
2018-06-02T04:57:38.218Z,19.5
2018-06-02T04:58:47.082Z,19.51
2018-06-02T04:59:55.944Z,19.44
2018-06-02T05:01:05.092Z,19.63
2018-06-02T05:02:13.957Z,19.5
2018-06-02T05:03:23.094Z,19.44
2018-06-02T05:04:31.964Z,19.63
2018-06-02T05:05:41.253Z,19.62
2018-06-02T05:06:50.119Z,19.62
2018-06-02T05:07:59.256Z,19.56
2018-06-02T05:09:08.119Z,19.51
2018-06-02T05:10:17.265Z,19.62
2018-06-02T05:11:26.378Z,19.68
2018-06-02T05:12:35.241Z,19.63
2018-06-02T05:13:44.105Z,19.48
2018-06-02T05:14:53.249Z,19.51
2018-06-02T05:16:02.113Z,19.68
2018-06-02T05:17:11.124Z,19.63
2018-06-02T05:18:20.265Z,19.48
2018-06-02T05:19:29.131Z,19.59
2018-06-02T05:20:37.990Z,19.54
2018-06-02T05:21:46.853Z,19.46
2018-06-02T05:22:55.819Z,19.61
2018-06-02T05:24:04.679Z,19.68
2018-06-02T05:25:13.541Z,19.56
2018-06-02T05:26:22.408Z,19.47
2018-06-02T05:27:31.279Z,19.46
2018-06-02T05:28:40.239Z,19.41
2018-06-02T05:29:49.103Z,19.39
2018-06-02T05:30:58.250Z,19.55
2018-06-02T05:32:07.387Z,19.41
2018-06-02T05:33:16.250Z,19.28
2018-06-02T05:34:25.442Z,19.21
2018-06-02T05:35:34.252Z,19.14
2018-06-02T05:36:43.112Z,19.21
2018-06-02T05:37:52.254Z,19.29
2018-06-02T05:39:01.118Z,19.08
2018-06-02T05:40:10.082Z,19.02
2018-06-02T05:41:18.946Z,19.23
2018-06-02T05:42:28.086Z,19.19
2018-06-02T05:43:36.952Z,19.14
2018-06-02T05:44:46.098Z,19.25
2018-06-02T05:45:55.180Z,19.08
2018-06-02T05:47:03.978Z,19.1
2018-06-02T05:48:13.120Z,19.16
2018-06-02T05:49:22.261Z,19.21
2018-06-02T05:50:31.124Z,19.21
2018-06-02T05:51:40.338Z,18.95
2018-06-02T05:52:49.203Z,18.91
2018-06-02T05:53:58.063Z,18.99
2018-06-02T05:55:07.201Z,18.87
2018-06-02T05:56:16.062Z,18.88
2018-06-02T05:57:25.205Z,18.99
2018-06-02T05:58:34.069Z,18.84
2018-06-02T05:59:45.166Z,18.76
2018-06-02T06:00:52.638Z,18.94
2018-06-02T06:02:01.502Z,18.87
2018-06-02T06:03:10.415Z,18.82
2018-06-02T06:04:19.555Z,18.73
2018-06-02T06:05:28.416Z,18.95
2018-06-02T06:06:37.280Z,18.99
2018-06-02T06:07:46.142Z,18.84
2018-06-02T06:08:55.103Z,18.76
2018-06-02T06:10:03.970Z,19.1
2018-06-02T06:11:12.833Z,18.76
2018-06-02T06:12:21.699Z,18.72
2018-06-02T06:13:30.564Z,18.75
2018-06-02T06:14:40.134Z,18.58
2018-06-02T06:15:49.000Z,18.65
2018-06-02T06:16:57.861Z,18.7
2018-06-02T06:18:07.003Z,18.58
2018-06-02T06:19:15.864Z,18.7
2018-06-02T06:20:24.728Z,18.48
2018-06-02T06:21:33.873Z,18.44
2018-06-02T06:22:42.742Z,18.39
2018-06-02T06:23:51.883Z,18.27
2018-06-02T06:25:00.741Z,18.29
2018-06-02T06:26:09.753Z,18.32
2018-06-02T06:27:18.613Z,18.23
2018-06-02T06:28:27.476Z,18.23
2018-06-02T06:29:36.624Z,18.45
2018-06-02T06:30:45.487Z,18.39
2018-06-02T06:31:54.701Z,18.33
2018-06-02T06:33:04.075Z,18.29
2018-06-02T06:34:12.885Z,18.58
2018-06-02T06:35:21.750Z,18.54
2018-06-02T06:36:30.608Z,18.33
2018-06-02T06:37:39.524Z,18.26
2018-06-02T06:38:48.390Z,18.32
2018-06-02T06:39:57.530Z,18.29
2018-06-02T06:41:06.397Z,18.36
2018-06-02T06:42:15.545Z,18.63
2018-06-02T06:43:24.554Z,18.55
2018-06-02T06:44:33.877Z,18.44
2018-06-02T06:45:42.670Z,18.55
2018-06-02T06:46:51.806Z,18.52
2018-06-02T06:48:00.670Z,18.44
2018-06-02T06:49:09.634Z,18.45
2018-06-02T06:50:18.497Z,18.32
2018-06-02T06:51:27.360Z,18.41
2018-06-02T06:52:36.224Z,18.35
2018-06-02T06:53:45.364Z,18.32
2018-06-02T06:54:54.228Z,18.3
2018-06-02T06:56:03.087Z,18.42
2018-06-02T06:57:12.232Z,18.41
2018-06-02T06:58:21.380Z,18.36
2018-06-02T06:59:30.519Z,18.48
2018-06-02T07:00:39.482Z,18.5
2018-06-02T07:01:48.344Z,18.44
2018-06-02T07:02:57.207Z,18.52
2018-06-02T07:04:06.357Z,18.29
2018-06-02T07:05:15.216Z,18.3
2018-06-02T07:06:24.606Z,18.29
2018-06-02T07:07:33.470Z,18.41
2018-06-02T07:08:42.332Z,18.52
2018-06-02T07:09:51.200Z,18.62
2018-06-02T07:11:00.058Z,18.52
2018-06-02T07:12:09.860Z,18.51
2018-06-02T07:13:19.008Z,18.66
2018-06-02T07:14:27.873Z,18.69
2018-06-02T07:15:37.091Z,18.75
2018-06-02T07:16:46.237Z,18.57
2018-06-02T07:17:55.097Z,18.39
2018-06-02T07:19:04.243Z,18.44
2018-06-02T07:20:13.105Z,18.51
2018-06-02T07:21:21.966Z,18.54
2018-06-02T07:22:31.539Z,18.54
2018-06-02T07:23:40.452Z,18.44
2018-06-02T07:24:49.647Z,18.39
2018-06-02T07:25:58.788Z,18.51
2018-06-02T07:27:07.652Z,18.55
2018-06-02T07:28:16.520Z,18.5
2018-06-02T07:29:25.488Z,18.5
2018-06-02T07:30:34.344Z,18.47
2018-06-02T07:31:43.485Z,18.51
2018-06-02T07:32:52.347Z,18.55
2018-06-02T07:34:01.213Z,18.44
2018-06-02T07:35:10.126Z,18.65
2018-06-02T07:36:19.059Z,18.66
2018-06-02T07:37:27.923Z,18.73
2018-06-02T07:38:37.064Z,18.72
2018-06-02T07:39:46.204Z,18.69
2018-06-02T07:40:55.348Z,18.85
2018-06-02T07:42:04.209Z,18.87
2018-06-02T07:43:13.349Z,18.87
2018-06-02T07:44:22.544Z,18.82
2018-06-02T07:45:31.728Z,18.82
2018-06-02T07:46:40.602Z,19.07
2018-06-02T07:47:49.737Z,18.95
2018-06-02T07:48:58.886Z,18.98
2018-06-02T07:50:08.204Z,19.08
2018-06-02T07:51:17.397Z,19.06
2018-06-02T07:52:26.541Z,18.95
2018-06-02T07:53:35.404Z,19
2018-06-02T07:54:44.268Z,19.16
2018-06-02T07:55:53.136Z,19.04
2018-06-02T07:57:01.998Z,18.98
2018-06-02T07:58:10.862Z,19
2018-06-02T07:59:20.009Z,18.98
2018-06-02T08:00:29.226Z,18.95
2018-06-02T08:01:38.088Z,18.94
2018-06-02T08:02:46.964Z,19.04
2018-06-02T08:03:55.832Z,19.11
2018-06-02T08:05:04.696Z,19.08
2018-06-02T08:06:13.593Z,19.19
2018-06-02T08:07:22.458Z,19.08
2018-06-02T08:08:31.401Z,19.02
2018-06-02T08:09:40.205Z,19.07
2018-06-02T08:10:49.073Z,19.04
2018-06-02T08:11:58.091Z,19.04
2018-06-02T08:13:07.246Z,19.04
2018-06-02T08:14:16.114Z,19.11
2018-06-02T08:15:24.978Z,19.11
2018-06-02T08:16:33.842Z,19.04
2018-06-02T08:17:42.988Z,19.1
2018-06-02T08:18:51.855Z,19.07
2018-06-02T08:20:00.954Z,19.1
2018-06-02T08:21:09.819Z,19.08
2018-06-02T08:22:19.248Z,19.14
2018-06-02T08:23:28.768Z,19.22
2018-06-02T08:24:37.644Z,19.23
2018-06-02T08:25:46.511Z,19.29
2018-06-02T08:26:55.381Z,19.28
2018-06-02T08:28:04.247Z,19.22
2018-06-02T08:29:13.162Z,19.22
2018-06-02T08:30:22.028Z,19.22
2018-06-02T08:31:30.894Z,19.04
2018-06-02T08:32:39.758Z,19.02
2018-06-02T08:33:48.620Z,19.16
2018-06-02T08:34:57.985Z,19.1
2018-06-02T08:36:06.849Z,19.08
2018-06-02T08:37:15.712Z,19.1
2018-06-02T08:38:24.576Z,19.04
2018-06-02T08:39:33.471Z,19.08
2018-06-02T08:40:42.383Z,19.04
2018-06-02T08:41:51.264Z,19.16
2018-06-02T08:43:00.152Z,19.18
2018-06-02T08:44:09.302Z,19.36
2018-06-02T08:45:18.446Z,19.29
2018-06-02T08:46:27.637Z,19.14
2018-06-02T08:47:36.504Z,19.06
2018-06-02T08:48:45.643Z,19.11
2018-06-02T08:49:54.507Z,19.02
2018-06-02T08:51:03.372Z,19.16
2018-06-02T08:52:12.237Z,19.37
2018-06-02T08:53:21.100Z,19.33
2018-06-02T08:54:30.041Z,19.33
2018-06-02T08:55:38.832Z,19.4
2018-06-02T08:56:47.698Z,19.33
2018-06-02T08:57:56.564Z,19.4
2018-06-02T08:59:05.705Z,19.32
2018-06-02T09:00:14.849Z,19.44
2018-06-02T09:01:23.713Z,19.41
2018-06-02T09:02:32.583Z,19.19
2018-06-02T09:03:41.592Z,19.04
2018-06-02T09:04:50.456Z,19.19
2018-06-02T09:05:59.599Z,19.16
2018-06-02T09:07:08.466Z,19.11
2018-06-02T09:08:17.324Z,19.08
2018-06-02T09:09:26.291Z,18.91
2018-06-02T09:10:35.161Z,18.98
2018-06-02T09:11:44.305Z,19.11
2018-06-02T09:12:53.170Z,19.06
2018-06-02T09:14:02.041Z,19.11
2018-06-02T09:15:11.178Z,19.13
2018-06-02T09:16:20.041Z,19.14
2018-06-02T09:17:28.906Z,19.21
2018-06-02T09:18:37.770Z,19.21
2018-06-02T09:19:46.636Z,19.18
2018-06-02T09:20:55.601Z,19.21
2018-06-02T09:22:04.742Z,19.13
2018-06-02T09:23:13.605Z,19.16
2018-06-02T09:24:22.472Z,19.08
2018-06-02T09:25:31.337Z,19.26
2018-06-02T09:26:40.529Z,19.23
2018-06-02T09:27:49.437Z,19.25
2018-06-02T09:28:58.584Z,19.18
2018-06-02T09:30:07.453Z,19.21
2018-06-02T09:31:16.319Z,19.22
2018-06-02T09:32:25.562Z,19.13
2018-06-02T09:33:34.461Z,19.11
2018-06-02T09:34:43.636Z,19.22
2018-06-02T09:35:52.784Z,19.21
2018-06-02T09:37:01.685Z,19.19
2018-06-02T09:38:10.895Z,19.18
2018-06-02T09:39:20.315Z,19.04
2018-06-02T09:40:29.368Z,19.06
2018-06-02T09:41:38.305Z,19.14
2018-06-02T09:42:47.451Z,19.19
2018-06-02T09:43:56.386Z,19.26
2018-06-02T09:45:05.250Z,19.32
2018-06-02T09:46:14.123Z,19.28
2018-06-02T09:47:23.056Z,19.31
2018-06-02T09:48:32.558Z,19.44
2018-06-02T09:49:41.547Z,19.4
2018-06-02T09:50:50.420Z,19.19
2018-06-02T09:51:59.341Z,19.19
2018-06-02T09:53:08.204Z,19.19
2018-06-02T09:54:17.069Z,19.23
2018-06-02T09:55:26.270Z,19.18
2018-06-02T09:56:35.135Z,19.21
2018-06-02T09:57:44.034Z,19.13
2018-06-02T09:58:53.140Z,19.14
2018-06-02T10:00:02.019Z,19.18
2018-06-02T10:01:10.884Z,19.19
2018-06-02T10:02:20.025Z,19.21
2018-06-02T10:03:29.169Z,19.28
2018-06-02T10:04:38.038Z,19.31
2018-06-02T10:05:46.896Z,19.18
2018-06-02T10:06:56.040Z,19.18
2018-06-02T10:08:04.931Z,19.29
2018-06-02T10:09:13.796Z,19.19
2018-06-02T10:10:22.660Z,19.18
2018-06-02T10:11:31.527Z,19.06
2018-06-02T10:12:40.668Z,19.07
2018-06-02T10:13:49.537Z,19.16
2018-06-02T10:14:58.401Z,19.16
2018-06-02T10:16:07.267Z,19.19
2018-06-02T10:17:16.419Z,19.16
2018-06-02T10:18:25.559Z,19.21
2018-06-02T10:19:34.424Z,19.22
2018-06-02T10:20:43.581Z,19.13
2018-06-02T10:21:52.449Z,19.16
2018-06-02T10:23:01.319Z,19.28
2018-06-02T10:24:10.195Z,19.26
2018-06-02T10:25:19.058Z,19.29
2018-06-02T10:26:28.073Z,19.4
2018-06-02T10:27:36.984Z,19.37
2018-06-02T10:28:45.847Z,19.32
2018-06-02T10:29:54.713Z,19.43
2018-06-02T10:31:03.864Z,19.37
2018-06-02T10:32:12.889Z,19.29
2018-06-02T10:33:22.020Z,19.43
2018-06-02T10:34:30.894Z,19.44
2018-06-02T10:35:39.867Z,19.47
2018-06-02T10:36:48.619Z,19.46
2018-06-02T10:37:57.861Z,19.62
2018-06-02T10:39:06.726Z,19.62
2018-06-02T10:40:15.865Z,19.68
2018-06-02T10:41:24.730Z,19.63
2018-06-02T10:42:33.595Z,19.51
2018-06-02T10:43:42.509Z,19.5
2018-06-02T10:44:51.380Z,19.62
2018-06-02T10:46:00.239Z,19.65
2018-06-02T10:47:09.103Z,19.63
2018-06-02T10:48:17.968Z,19.68
2018-06-02T10:49:27.265Z,19.68
2018-06-02T10:50:36.408Z,19.59
2018-06-02T10:51:45.556Z,19.59
2018-06-02T10:52:54.421Z,19.59
2018-06-02T10:54:03.289Z,19.61
2018-06-02T10:55:12.305Z,19.68
2018-06-02T10:56:21.174Z,19.62
2018-06-02T10:57:30.325Z,19.59
2018-06-02T10:58:39.189Z,19.58
2018-06-02T10:59:48.336Z,19.51
2018-06-02T11:00:58.011Z,19.51
2018-06-02T11:02:07.432Z,19.65
2018-06-02T11:03:16.575Z,19.33
2018-06-02T11:04:25.439Z,19.44
2018-06-02T11:05:34.591Z,19.4
2018-06-02T11:06:43.457Z,19.39
2018-06-02T11:07:52.879Z,19.4
2018-06-02T11:09:01.806Z,19.46
2018-06-02T11:10:10.612Z,19.51
2018-06-02T11:11:20.042Z,19.62
2018-06-02T11:12:29.254Z,19.59
2018-06-02T11:13:38.141Z,19.4
2018-06-02T11:14:47.005Z,19.44
2018-06-02T11:15:55.875Z,19.55
2018-06-02T11:17:04.736Z,19.68
2018-06-02T11:18:14.051Z,19.73
2018-06-02T11:19:22.915Z,19.62
2018-06-02T11:20:31.785Z,19.71
2018-06-02T11:21:40.649Z,19.71
2018-06-02T11:22:49.516Z,19.63
2018-06-02T11:23:58.812Z,19.73
2018-06-02T11:25:07.677Z,19.69
2018-06-02T11:26:16.545Z,19.69
2018-06-02T11:27:25.698Z,19.69
2018-06-02T11:28:34.561Z,19.74
2018-06-02T11:29:43.776Z,19.71
2018-06-02T11:30:52.643Z,19.68
2018-06-02T11:32:01.512Z,19.63
2018-06-02T11:33:10.653Z,19.55
2018-06-02T11:34:19.517Z,19.58
2018-06-02T11:35:28.432Z,19.59
2018-06-02T11:36:37.294Z,19.59
2018-06-02T11:37:46.157Z,19.51
2018-06-02T11:38:55.024Z,19.48
2018-06-02T11:40:04.449Z,19.65
2018-06-02T11:41:13.312Z,19.61
2018-06-02T11:42:22.180Z,19.71
2018-06-02T11:43:31.322Z,19.65
2018-06-02T11:44:40.190Z,19.59
2018-06-02T11:45:49.056Z,19.61
2018-06-02T11:46:57.922Z,19.77
2018-06-02T11:48:06.784Z,19.71
2018-06-02T11:49:15.647Z,19.71
2018-06-02T11:50:24.512Z,19.69
2018-06-02T11:51:33.991Z,19.65
2018-06-02T11:52:42.856Z,19.74
2018-06-02T11:53:51.716Z,19.63
2018-06-02T11:55:00.861Z,19.76
2018-06-02T11:56:09.731Z,19.69
2018-06-02T11:57:18.593Z,19.77
2018-06-02T11:58:27.515Z,19.74
2018-06-02T11:59:36.382Z,19.83
2018-06-02T12:00:45.526Z,19.77
2018-06-02T12:01:54.391Z,20.01
2018-06-02T12:03:03.261Z,19.88
2018-06-02T12:04:12.503Z,20.02
2018-06-02T12:05:21.367Z,19.99
2018-06-02T12:06:30.509Z,20.06
2018-06-02T12:07:39.373Z,20.11
2018-06-02T12:08:48.241Z,20.06
2018-06-02T12:09:57.209Z,20.06
2018-06-02T12:11:06.073Z,20.01
2018-06-02T12:12:14.937Z,20.03
2018-06-02T12:13:23.802Z,20.16
2018-06-02T12:14:32.664Z,20.2
2018-06-02T12:15:41.730Z,20.16
2018-06-02T12:16:50.592Z,20.23
2018-06-02T12:17:59.464Z,20.13
2018-06-02T12:19:08.610Z,20.1
2018-06-02T12:20:17.474Z,20.08
2018-06-02T12:21:26.777Z,20.06
2018-06-02T12:22:36.206Z,20.05
2018-06-02T12:23:45.358Z,20.06
2018-06-02T12:24:54.510Z,20.05
2018-06-02T12:26:03.373Z,20.03
2018-06-02T12:27:12.486Z,20.1
2018-06-02T12:28:21.386Z,20.01
2018-06-02T12:29:30.216Z,20.05
2018-06-02T12:30:39.080Z,20.11
2018-06-02T12:31:47.945Z,20.13
2018-06-02T12:32:56.859Z,20.02
2018-06-02T12:34:06.282Z,20.08
2018-06-02T12:35:15.424Z,20.06
2018-06-02T12:36:24.291Z,19.87
2018-06-02T12:37:33.157Z,19.94
2018-06-02T12:38:42.121Z,20.02
2018-06-02T12:39:50.983Z,19.88
2018-06-02T12:40:59.847Z,20.06
2018-06-02T12:42:08.713Z,19.98
2018-06-02T12:43:17.575Z,20.11
2018-06-02T12:44:26.436Z,20.03
2018-06-02T12:45:35.301Z,20.08
2018-06-02T12:46:44.165Z,20.13
2018-06-02T12:47:53.027Z,20.1
2018-06-02T12:49:01.891Z,20.05
2018-06-02T12:50:10.957Z,20.1
2018-06-02T12:51:19.822Z,20.08
2018-06-02T12:52:28.687Z,20.06
2018-06-02T12:53:37.552Z,20.11
2018-06-02T12:54:46.414Z,20.16
2018-06-02T12:55:55.605Z,20.17
2018-06-02T12:57:04.467Z,20.17
2018-06-02T12:58:13.611Z,20.18
2018-06-02T12:59:22.759Z,20.16
2018-06-02T13:00:31.624Z,20.08
2018-06-02T13:01:40.588Z,20.1
2018-06-02T13:02:49.450Z,20.11
2018-06-02T13:03:58.593Z,20.13
2018-06-02T13:05:07.457Z,20.18
2018-06-02T13:06:16.596Z,20.28
2018-06-02T13:07:25.462Z,20.16
2018-06-02T13:08:34.325Z,20.18
2018-06-02T13:09:43.187Z,20.18
2018-06-02T13:10:52.051Z,20.14
2018-06-02T13:12:00.919Z,20.2
2018-06-02T13:13:09.932Z,20.18
2018-06-02T13:14:19.078Z,20.13
2018-06-02T13:15:27.942Z,20.23
2018-06-02T13:16:36.808Z,20.21
2018-06-02T13:17:45.667Z,20.2
2018-06-02T13:18:54.634Z,20.24
2018-06-02T13:20:03.497Z,20.33
2018-06-02T13:21:12.423Z,20.31
2018-06-02T13:22:21.854Z,20.35
2018-06-02T13:23:30.718Z,20.31
2018-06-02T13:24:39.740Z,20.35
2018-06-02T13:25:48.882Z,20.43
2018-06-02T13:26:57.745Z,20.38
2018-06-02T13:28:06.609Z,20.38
2018-06-02T13:29:15.473Z,20.32
2018-06-02T13:30:24.904Z,20.42
2018-06-02T13:31:33.768Z,20.42
2018-06-02T13:32:42.631Z,20.47
2018-06-02T13:33:51.496Z,20.36
2018-06-02T13:35:00.364Z,20.32
2018-06-02T13:36:09.411Z,20.41
2018-06-02T13:37:18.335Z,20.41
2018-06-02T13:38:27.478Z,20.43
2018-06-02T13:39:36.340Z,20.33
2018-06-02T13:40:45.205Z,20.39
2018-06-02T13:41:54.599Z,20.35
2018-06-02T13:43:03.495Z,20.52
2018-06-02T13:44:13.032Z,20.5
2018-06-02T13:45:21.900Z,20.48
2018-06-02T13:46:30.763Z,20.5
2018-06-02T13:47:39.725Z,20.62
2018-06-02T13:48:48.863Z,20.57
2018-06-02T13:49:57.726Z,20.52
2018-06-02T13:51:06.594Z,20.51
2018-06-02T13:52:15.740Z,20.51
2018-06-02T13:53:24.753Z,20.38
2018-06-02T13:54:33.618Z,20.35
2018-06-02T13:55:42.484Z,20.36
2018-06-02T13:56:51.345Z,20.33
2018-06-02T13:58:00.211Z,20.41
2018-06-02T13:59:09.072Z,20.38
2018-06-02T14:00:17.937Z,20.35
2018-06-02T14:01:26.803Z,20.32
2018-06-02T14:02:35.668Z,20.35
2018-06-02T14:03:44.527Z,20.5
2018-06-02T14:04:53.391Z,20.43
2018-06-02T14:06:02.534Z,20.31
2018-06-02T14:07:11.400Z,20.31
2018-06-02T14:08:20.827Z,20.39
2018-06-02T14:09:29.711Z,20.35
2018-06-02T14:10:38.634Z,20.32
2018-06-02T14:11:47.495Z,20.31
2018-06-02T14:12:56.365Z,20.38
2018-06-02T14:14:05.508Z,20.36
2018-06-02T14:15:14.665Z,20.58
2018-06-02T14:16:23.577Z,20.52
2018-06-02T14:17:32.439Z,20.47
2018-06-02T14:18:41.714Z,20.38
2018-06-02T14:19:50.510Z,20.51
2018-06-02T14:20:59.378Z,20.51
2018-06-02T14:22:08.672Z,20.42
2018-06-02T14:23:17.812Z,20.38
2018-06-02T14:24:26.675Z,20.39
2018-06-02T14:25:35.600Z,20.36
2018-06-02T14:26:44.416Z,20.31
2018-06-02T14:27:53.439Z,20.32
2018-06-02T14:29:02.587Z,20.32
2018-06-02T14:30:11.732Z,20.32
2018-06-02T14:31:20.597Z,20.33
2018-06-02T14:32:29.465Z,20.28
2018-06-02T14:33:38.421Z,20.28
2018-06-02T14:34:47.285Z,20.31
2018-06-02T14:35:56.427Z,20.24
2018-06-02T14:37:05.293Z,20.21
2018-06-02T14:38:14.260Z,20.32
2018-06-02T14:39:23.534Z,20.24
2018-06-02T14:40:32.399Z,20.21
2018-06-02T14:41:41.263Z,20.21
2018-06-02T14:42:50.125Z,20.32
2018-06-02T14:43:59.270Z,20.29
2018-06-02T14:45:08.243Z,20.36
2018-06-02T14:46:17.108Z,20.32
2018-06-02T14:47:25.972Z,20.36
2018-06-02T14:48:35.116Z,20.35
2018-06-02T14:49:43.980Z,20.36
2018-06-02T14:50:53.277Z,20.35